Airfield :
LOGIN :

Register | Disclaimer

   EN    FR    IT 

 










Legend :    VFR   Marginal VFR   IFR   Intensive IFR   Very Intensive IFR
Visi :
Ceiling :
>= 8 km
>= 3000ft
5 to 8 km
1000 to 3000 ft
1500m to 5 km
500 to 1000 ft
800 to 1500m
200 to 500 ft
< 800m
< 200 ft
Symbols :   Thunderstorms  Fog  Heavy snow  Heavy precipitations  Wind > 20 kt
SIGMETs :     Misc.  Thunderstorms  Icing  Turbulence  Mountain Waves  Volcanic Ashes







- Airport Elevation : 1046 ft
- IATA code : NUE


EDDN - Nuremberg

CURRENT METAR :
  • 290650Z 29009KT 9999 -RA BKN009 BKN035 16/15 Q0997 RERA NOSIG

EXPIRED METARs :
  • 290620Z 28011KT 9999 -RA BKN008 BKN035 16/15 Q0997 RERA NOSIG
  • 290554Z 27014KT 9999 -RA BKN007 BKN035 16/15 Q0997 RERA TEMPO RA
  • 290550Z 27014KT 9999 RA BKN007 BKN035 16/15 Q0997 TEMPO -RA
  • 290520Z 28011KT 9999 RA BKN006 BKN035 16/16 Q0996 NOSIG
  • 290450Z 29008KT 7000 RA BKN005 BKN035 16/16 Q0996 TEMPO 4000
  • 290420Z 29005KT 5000 RA BKN006 BKN035 16/15 Q0996 TEMPO 4000
  • 290411Z 29006KT 5000 RA BKN006 BKN035 16/15 Q0996 TEMPO 4000

TAF TAF EDDN
Valid from the 29 at 06:00 until the 30 at 06:00 UTC


290500Z 2906/3006 29010KT 9000 SCT006 BKN035
TEMPO 2906/2909 4000 RA BKN006
PROB30
TEMPO 2909/2911 BKN012
BECMG 2914/2916 25005KT
PROB30
TEMPO 2917/2920 26015G30KT TSRA BKN040CB
No reported NOTAMs for that airfield.
1 SIGMET reported for the München FIR (EDMM) :
 
Darkened thunderstorms
EDMM SIGMET 3 VALID 290647/290747 EDZM
EDMM MUNCHEN FIR OBSC TS OBS N OF N5045 AND E OF E01345 TOP FL300 MOV N NC=



MET'MAP, your aeronautical weather chart ! - Copyright ORBIFLY December 2007 - Disclaimer

ORBIFLY MET'MAP TEAM :

Programming & Development : Alexandra Zaïnal
Concept & Development : Baudouin d'Aumeries
Co-Development & Prog : Marc-Olivier Méhu
Technical & hardware support : Manuel Goepfert

Contact : metmap@orbifly.com




SOURCES & CREDITS :

   NOAA